sensor_id;sensor_type;location;lat;lon;timestamp;P1;durP1;ratioP1;P2;durP2;ratioP2
59986;SDS011;46181;51.498;5.392;2023-02-13T00:02:11;37.04;;;16.576;;
59986;SDS011;46181;51.498;5.392;2023-02-13T00:06:41;33.876;;;15.948;;
59986;SDS011;46181;51.498;5.392;2023-02-13T00:11:11;37.56;;;16.88;;
59986;SDS011;46181;51.498;5.392;2023-02-13T00:15:41;40.512;;;17.108;;
59986;SDS011;46181;51.498;5.392;2023-02-13T00:20:11;36.09201;;;15.752;;
59986;SDS011;46181;51.498;5.392;2023-02-13T00:24:41;38.864;;;16.42;;
59986;SDS011;46181;51.498;5.392;2023-02-13T00:29:11;35.288;;;16.208;;
59986;SDS011;46181;51.498;5.392;2023-02-13T00:33:41;36.356;;;16.44;;
59986;SDS011;46181;51.498;5.392;2023-02-13T00:38:11;35.536;;;17.3;;
59986;SDS011;46181;51.498;5.392;2023-02-13T00:42:41;34.676;;;16.032;;
59986;SDS011;46181;51.498;5.392;2023-02-13T00:47:11;33.86;;;16.156;;
59986;SDS011;46181;51.498;5.392;2023-02-13T00:51:41;38.032;;;17.732;;
59986;SDS011;46181;51.498;5.392;2023-02-13T00:56:11;37.352;;;16.348;;
59986;SDS011;46181;51.498;5.392;2023-02-13T01:00:41;35.87201;;;16.58;;
59986;SDS011;46181;51.498;5.392;2023-02-13T01:05:11;34.268;;;16.08;;
59986;SDS011;46181;51.498;5.392;2023-02-13T01:09:41;38.84;;;16.772;;
59986;SDS011;46181;51.498;5.392;2023-02-13T01:14:11;36.528;;;16.972;;
59986;SDS011;46181;51.498;5.392;2023-02-13T01:18:41;35.872;;;16.488;;
59986;SDS011;46181;51.498;5.392;2023-02-13T01:23:11;39.204;;;17.308;;
59986;SDS011;46181;51.498;5.392;2023-02-13T01:27:41;34.652;;;16.496;;
59986;SDS011;46181;51.498;5.392;2023-02-13T01:32:11;39.236;;;17.088;;
59986;SDS011;46181;51.498;5.392;2023-02-13T01:36:41;37.44;;;16.924;;
59986;SDS011;46181;51.498;5.392;2023-02-13T01:41:11;38;;;16.404;;
59986;SDS011;46181;51.498;5.392;2023-02-13T01:45:41;38.30001;;;17.696;;
59986;SDS011;46181;51.498;5.392;2023-02-13T01:50:12;35.88;;;17.048;;
59986;SDS011;46181;51.498;5.392;2023-02-13T01:54:41;35.30799;;;16.46;;
59986;SDS011;46181;51.498;5.392;2023-02-13T01:59:11;38.6;;;16.584;;
59986;SDS011;46181;51.498;5.392;2023-02-13T02:03:41;37.668;;;17.92;;
59986;SDS011;46181;51.498;5.392;2023-02-13T02:08:11;37.68;;;17.204;;
59986;SDS011;46181;51.498;5.392;2023-02-13T02:12:41;36.07201;;;16.828;;
59986;SDS011;46181;51.498;5.392;2023-02-13T02:17:11;35.05601;;;16.912;;
59986;SDS011;46181;51.498;5.392;2023-02-13T02:35:14;37.464;;;17.044;;
59986;SDS011;46181;51.498;5.392;2023-02-13T02:39:43;33.808;;;16.128;;
59986;SDS011;46181;51.498;5.392;2023-02-13T02:44:14;34.712;;;15.836;;
59986;SDS011;46181;51.498;5.392;2023-02-13T02:48:42;34;;;17.196;;
59986;SDS011;46181;51.498;5.392;2023-02-13T02:53:16;35.07201;;;16.88;;
59986;SDS011;46181;51.498;5.392;2023-02-13T02:57:41;38.116;;;16.824;;
59986;SDS011;46181;51.498;5.392;2023-02-13T03:02:11;35.444;;;16.416;;
59986;SDS011;46181;51.498;5.392;2023-02-13T03:06:42;36.368;;;16.556;;
59986;SDS011;46181;51.498;5.392;2023-02-13T03:11:11;33.26;;;15.876;;
59986;SDS011;46181;51.498;5.392;2023-02-13T03:15:41;33.148;;;16.216;;
59986;SDS011;46181;51.498;5.392;2023-02-13T03:20:14;34.00401;;;15.9;;
59986;SDS011;46181;51.498;5.392;2023-02-13T03:24:43;37.528;;;16.44;;
59986;SDS011;46181;51.498;5.392;2023-02-13T03:29:11;34.696;;;15.672;;
59986;SDS011;46181;51.498;5.392;2023-02-13T03:33:47;34.976;;;16.208;;
59986;SDS011;46181;51.498;5.392;2023-02-13T03:38:12;32.48;;;15.932;;
59986;SDS011;46181;51.498;5.392;2023-02-13T03:42:41;30.792;;;14.632;;
59986;SDS011;46181;51.498;5.392;2023-02-13T03:47:11;30.91999;;;15.168;;
59986;SDS011;46181;51.498;5.392;2023-02-13T03:51:41;33.068;;;15.512;;
59986;SDS011;46181;51.498;5.392;2023-02-13T03:56:11;30.24;;;15.408;;
59986;SDS011;46181;51.498;5.392;2023-02-13T04:00:41;33.76;;;16.124;;
59986;SDS011;46181;51.498;5.392;2023-02-13T04:05:12;30.15599;;;15.064;;
59986;SDS011;46181;51.498;5.392;2023-02-13T04:09:41;34.076;;;15.748;;
59986;SDS011;46181;51.498;5.392;2023-02-13T04:14:12;33.576;;;16.144;;
59986;SDS011;46181;51.498;5.392;2023-02-13T04:18:41;30.1;;;15.152;;
59986;SDS011;46181;51.498;5.392;2023-02-13T04:23:11;31.316;;;14.36;;
59986;SDS011;46181;51.498;5.392;2023-02-13T04:27:41;33.012;;;16.452;;
59986;SDS011;46181;51.498;5.392;2023-02-13T04:32:12;30.42;;;14.736;;
59986;SDS011;46181;51.498;5.392;2023-02-13T04:36:41;33.78799;;;16.44;;
59986;SDS011;46181;51.498;5.392;2023-02-13T04:41:11;33.07999;;;16.06;;
59986;SDS011;46181;51.498;5.392;2023-02-13T04:45:41;33.928;;;15.692;;
59986;SDS011;46181;51.498;5.392;2023-02-13T04:50:11;33.108;;;15.352;;
59986;SDS011;46181;51.498;5.392;2023-02-13T04:54:41;33.248;;;15.388;;
59986;SDS011;46181;51.498;5.392;2023-02-13T04:59:11;31.376;;;14.908;;
59986;SDS011;46181;51.498;5.392;2023-02-13T05:03:41;33.46;;;15.484;;
59986;SDS011;46181;51.498;5.392;2023-02-13T05:08:11;29.724;;;14.552;;
59986;SDS011;46181;51.498;5.392;2023-02-13T05:12:41;31.724;;;15.38;;
59986;SDS011;46181;51.498;5.392;2023-02-13T05:17:11;34.292;;;15.656;;
59986;SDS011;46181;51.498;5.392;2023-02-13T05:21:41;33.064;;;15.828;;
59986;SDS011;46181;51.498;5.392;2023-02-13T05:26:11;31.636;;;15.072;;
59986;SDS011;46181;51.498;5.392;2023-02-13T05:30:41;36.828;;;15.84;;
59986;SDS011;46181;51.498;5.392;2023-02-13T05:35:11;33.232;;;15.224;;
59986;SDS011;46181;51.498;5.392;2023-02-13T05:39:41;33.08;;;15.776;;
59986;SDS011;46181;51.498;5.392;2023-02-13T05:44:11;41.852;;;21;;
59986;SDS011;46181;51.498;5.392;2023-02-13T05:48:41;37.148;;;17.348;;
59986;SDS011;46181;51.498;5.392;2023-02-13T05:53:11;35.5;;;16.592;;
59986;SDS011;46181;51.498;5.392;2023-02-13T05:57:41;32.48;;;15.444;;
59986;SDS011;46181;51.498;5.392;2023-02-13T06:02:11;32.44;;;14.948;;
59986;SDS011;46181;51.498;5.392;2023-02-13T06:06:41;31.63601;;;14.968;;
59986;SDS011;46181;51.498;5.392;2023-02-13T06:11:11;31.856;;;14.932;;
59986;SDS011;46181;51.498;5.392;2023-02-13T06:15:41;31.236;;;14.66;;
59986;SDS011;46181;51.498;5.392;2023-02-13T06:20:11;28.52;;;13.592;;
59986;SDS011;46181;51.498;5.392;2023-02-13T06:24:41;30.104;;;15.012;;
59986;SDS011;46181;51.498;5.392;2023-02-13T06:29:11;30.852;;;14.544;;
59986;SDS011;46181;51.498;5.392;2023-02-13T06:33:41;28.252;;;13.512;;
59986;SDS011;46181;51.498;5.392;2023-02-13T06:38:11;31.904;;;15.324;;
59986;SDS011;46181;51.498;5.392;2023-02-13T06:42:41;30.952;;;14.956;;
59986;SDS011;46181;51.498;5.392;2023-02-13T06:47:11;28.73599;;;14.364;;
59986;SDS011;46181;51.498;5.392;2023-02-13T06:51:41;31.164;;;14.388;;
59986;SDS011;46181;51.498;5.392;2023-02-13T06:56:11;31.488;;;14.852;;
59986;SDS011;46181;51.498;5.392;2023-02-13T07:00:41;34.396;;;14.876;;
59986;SDS011;46181;51.498;5.392;2023-02-13T07:05:11;29.74;;;14.564;;
59986;SDS011;46181;51.498;5.392;2023-02-13T07:09:41;30.784;;;13.904;;
59986;SDS011;46181;51.498;5.392;2023-02-13T07:14:11;31.892;;;15.188;;
59986;SDS011;46181;51.498;5.392;2023-02-13T07:18:41;32.24;;;14.724;;
59986;SDS011;46181;51.498;5.392;2023-02-13T07:23:11;30.796;;;15.204;;
59986;SDS011;46181;51.498;5.392;2023-02-13T07:27:41;30.744;;;15.512;;
59986;SDS011;46181;51.498;5.392;2023-02-13T07:32:11;32.852;;;15.384;;
59986;SDS011;46181;51.498;5.392;2023-02-13T07:36:41;36.148;;;15.168;;
59986;SDS011;46181;51.498;5.392;2023-02-13T07:41:11;33.28;;;17.34;;
59986;SDS011;46181;51.498;5.392;2023-02-13T07:45:41;31.34;;;15.324;;
59986;SDS011;46181;51.498;5.392;2023-02-13T07:50:11;32.18;;;14.5;;
59986;SDS011;46181;51.498;5.392;2023-02-13T07:54:41;29.732;;;14.172;;
59986;SDS011;46181;51.498;5.392;2023-02-13T07:59:11;33.996;;;15.712;;
59986;SDS011;46181;51.498;5.392;2023-02-13T08:03:41;31.9;;;14.476;;
59986;SDS011;46181;51.498;5.392;2023-02-13T08:08:11;28.28801;;;15.224;;
59986;SDS011;46181;51.498;5.392;2023-02-13T08:12:41;31.808;;;15.056;;
59986;SDS011;46181;51.498;5.392;2023-02-13T08:17:11;32.068;;;15.444;;
59986;SDS011;46181;51.498;5.392;2023-02-13T08:21:41;31.332;;;15.08;;
59986;SDS011;46181;51.498;5.392;2023-02-13T08:26:11;29.4;;;14.884;;
59986;SDS011;46181;51.498;5.392;2023-02-13T08:30:41;31.256;;;15.076;;
59986;SDS011;46181;51.498;5.392;2023-02-13T08:35:11;30.58;;;14.516;;
59986;SDS011;46181;51.498;5.392;2023-02-13T08:39:41;28.508;;;14.7;;
59986;SDS011;46181;51.498;5.392;2023-02-13T08:44:15;29.472;;;14.992;;
59986;SDS011;46181;51.498;5.392;2023-02-13T08:48:41;30.06;;;15.616;;
59986;SDS011;46181;51.498;5.392;2023-02-13T08:53:11;30.46;;;13.996;;
59986;SDS011;46181;51.498;5.392;2023-02-13T08:57:41;27.54;;;14.008;;
59986;SDS011;46181;51.498;5.392;2023-02-13T09:02:12;28.8;;;13.78;;
59986;SDS011;46181;51.498;5.392;2023-02-13T09:06:41;27.264;;;13.124;;
59986;SDS011;46181;51.498;5.392;2023-02-13T09:11:11;27.324;;;13.64;;
59986;SDS011;46181;51.498;5.392;2023-02-13T09:15:41;28.932;;;15.128;;
59986;SDS011;46181;51.498;5.392;2023-02-13T09:20:11;26.892;;;13.82;;
59986;SDS011;46181;51.498;5.392;2023-02-13T09:24:41;28.396;;;14.912;;
59986;SDS011;46181;51.498;5.392;2023-02-13T09:29:11;24.736;;;13.316;;
59986;SDS011;46181;51.498;5.392;2023-02-13T09:33:41;26.732;;;13.064;;
59986;SDS011;46181;51.498;5.392;2023-02-13T09:38:11;28.33601;;;14.476;;
59986;SDS011;46181;51.498;5.392;2023-02-13T09:42:41;25.76;;;13.468;;
59986;SDS011;46181;51.498;5.392;2023-02-13T09:47:13;25.692;;;13.252;;
59986;SDS011;46181;51.498;5.392;2023-02-13T09:51:41;25.224;;;12.396;;
59986;SDS011;46181;51.498;5.392;2023-02-13T09:56:12;20.728;;;10.448;;
59986;SDS011;46181;51.498;5.392;2023-02-13T10:00:41;24.06;;;12.016;;
59986;SDS011;46181;51.498;5.392;2023-02-13T10:05:14;22.168;;;11.904;;
59986;SDS011;46181;51.498;5.392;2023-02-13T10:09:43;24.528;;;12.476;;
59986;SDS011;46181;51.498;5.392;2023-02-13T10:14:13;24.22;;;12.688;;
59986;SDS011;46181;51.498;5.392;2023-02-13T10:18:44;22.316;;;12.08;;
59986;SDS011;46181;51.498;5.392;2023-02-13T10:23:16;26.088;;;13.76;;
59986;SDS011;46181;51.498;5.392;2023-02-13T10:27:42;23.632;;;13.384;;
59986;SDS011;46181;51.498;5.392;2023-02-13T10:32:13;26.008;;;13.776;;
59986;SDS011;46181;51.498;5.392;2023-02-13T10:36:42;25.4;;;14.332;;
59986;SDS011;46181;51.498;5.392;2023-02-13T10:41:29;24.836;;;13.084;;
59986;SDS011;46181;51.498;5.392;2023-02-13T10:45:50;25.648;;;13.86;;
59986;SDS011;46181;51.498;5.392;2023-02-13T10:50:14;22.948;;;12.656;;
59986;SDS011;46181;51.498;5.392;2023-02-13T10:54:50;22.456;;;11.56;;
59986;SDS011;46181;51.498;5.392;2023-02-13T10:59:16;22.7;;;11.392;;
59986;SDS011;46181;51.498;5.392;2023-02-13T11:03:41;19.292;;;10.296;;
59986;SDS011;46181;51.498;5.392;2023-02-13T11:08:15;21.14;;;11.224;;
59986;SDS011;46181;51.498;5.392;2023-02-13T11:12:41;19.624;;;10.84;;
59986;SDS011;46181;51.498;5.392;2023-02-13T11:17:15;21.148;;;11.092;;
59986;SDS011;46181;51.498;5.392;2023-02-13T11:21:41;20.052;;;11.048;;
59986;SDS011;46181;51.498;5.392;2023-02-13T11:26:12;21.16;;;11.248;;
59986;SDS011;46181;51.498;5.392;2023-02-13T11:30:41;18.5;;;11.224;;
59986;SDS011;46181;51.498;5.392;2023-02-13T11:35:29;19.12;;;10.228;;
59986;SDS011;46181;51.498;5.392;2023-02-13T11:39:42;18.404;;;10.32;;
59986;SDS011;46181;51.498;5.392;2023-02-13T11:44:21;18.416;;;9.596002;;
59986;SDS011;46181;51.498;5.392;2023-02-13T11:48:41;18.04;;;9.652002;;
59986;SDS011;46181;51.498;5.392;2023-02-13T11:53:15;16.616;;;8.967999;;
59986;SDS011;46181;51.498;5.392;2023-02-13T11:57:41;18.508;;;9.079999;;
59986;SDS011;46181;51.498;5.392;2023-02-13T12:02:21;17.276;;;9.132001;;
59986;SDS011;46181;51.498;5.392;2023-02-13T12:06:41;19.94;;;9.568002;;
59986;SDS011;46181;51.498;5.392;2023-02-13T12:11:13;16.08;;;9.172;;
59986;SDS011;46181;51.498;5.392;2023-02-13T12:15:41;15.076;;;8.736;;
59986;SDS011;46181;51.498;5.392;2023-02-13T12:24:45;18.264;;;9.483999;;
59986;SDS011;46181;51.498;5.392;2023-02-13T12:29:21;15.084;;;7.848;;
59986;SDS011;46181;51.498;5.392;2023-02-13T12:33:45;15.26;;;8.247999;;
59986;SDS011;46181;51.498;5.392;2023-02-13T12:38:14;22.956;;;8.892001;;
59986;SDS011;46181;51.498;5.392;2023-02-13T12:42:42;14.476;;;8.891999;;
59986;SDS011;46181;51.498;5.392;2023-02-13T12:47:14;15.636;;;8.924;;
59986;SDS011;46181;51.498;5.392;2023-02-13T12:51:44;16.02;;;9.391998;;
59986;SDS011;46181;51.498;5.392;2023-02-13T12:56:17;13.008;;;7.948001;;
59986;SDS011;46181;51.498;5.392;2023-02-13T13:00:44;14.916;;;8.064001;;
59986;SDS011;46181;51.498;5.392;2023-02-13T13:05:16;16.24;;;8.500001;;
59986;SDS011;46181;51.498;5.392;2023-02-13T13:09:48;13.956;;;8.444001;;
59986;SDS011;46181;51.498;5.392;2023-02-13T13:14:12;14.22;;;8.568;;
59986;SDS011;46181;51.498;5.392;2023-02-13T13:18:45;14.004;;;8;;
59986;SDS011;46181;51.498;5.392;2023-02-13T13:23:12;15.624;;;8.476001;;
59986;SDS011;46181;51.498;5.392;2023-02-13T13:27:42;16.08;;;8.675999;;
59986;SDS011;46181;51.498;5.392;2023-02-13T13:32:12;14.632;;;8.507999;;
59986;SDS011;46181;51.498;5.392;2023-02-13T13:36:42;14.828;;;8.404;;
59986;SDS011;46181;51.498;5.392;2023-02-13T13:41:13;14.376;;;8.672;;
59986;SDS011;46181;51.498;5.392;2023-02-13T13:45:42;15.608;;;8.763999;;
59986;SDS011;46181;51.498;5.392;2023-02-13T13:50:16;14.98;;;8.708;;
59986;SDS011;46181;51.498;5.392;2023-02-13T13:54:41;15.664;;;9.219999;;
59986;SDS011;46181;51.498;5.392;2023-02-13T13:59:18;15.88;;;9.883999;;
59986;SDS011;46181;51.498;5.392;2023-02-13T14:03:41;15.816;;;9.191999;;
59986;SDS011;46181;51.498;5.392;2023-02-13T14:12:45;14.392;;;8.116001;;
59986;SDS011;46181;51.498;5.392;2023-02-13T14:17:11;14.612;;;8.276002;;
59986;SDS011;46181;51.498;5.392;2023-02-13T14:21:41;14.136;;;8.004;;
59986;SDS011;46181;51.498;5.392;2023-02-13T14:26:17;15.608;;;8.832002;;
59986;SDS011;46181;51.498;5.392;2023-02-13T14:30:41;14.072;;;8.628001;;
59986;SDS011;46181;51.498;5.392;2023-02-13T14:35:18;14.104;;;8.248;;
59986;SDS011;46181;51.498;5.392;2023-02-13T14:39:41;15.512;;;8.452001;;
59986;SDS011;46181;51.498;5.392;2023-02-13T14:44:11;16.408;;;9.060001;;
59986;SDS011;46181;51.498;5.392;2023-02-13T14:48:44;16.456;;;8.535999;;
59986;SDS011;46181;51.498;5.392;2023-02-13T14:53:13;14.112;;;8.652;;
59986;SDS011;46181;51.498;5.392;2023-02-13T14:57:42;13.448;;;7.235999;;
59986;SDS011;46181;51.498;5.392;2023-02-13T15:02:16;13.112;;;7.659999;;
59986;SDS011;46181;51.498;5.392;2023-02-13T15:06:42;16.36;;;9.196;;
59986;SDS011;46181;51.498;5.392;2023-02-13T15:11:11;16.788;;;9.875999;;
59986;SDS011;46181;51.498;5.392;2023-02-13T15:15:41;13.74;;;8.492001;;
59986;SDS011;46181;51.498;5.392;2023-02-13T15:20:16;14.036;;;7.835999;;
59986;SDS011;46181;51.498;5.392;2023-02-13T15:24:42;20.584;;;12.48;;
59986;SDS011;46181;51.498;5.392;2023-02-13T15:29:16;17.84;;;11.04;;
59986;SDS011;46181;51.498;5.392;2023-02-13T15:33:45;17.996;;;9.388;;
59986;SDS011;46181;51.498;5.392;2023-02-13T15:38:22;14.052;;;8.54;;
59986;SDS011;46181;51.498;5.392;2023-02-13T15:42:41;13.136;;;7.724;;
59986;SDS011;46181;51.498;5.392;2023-02-13T15:47:13;12.56;;;7.647999;;
59986;SDS011;46181;51.498;5.392;2023-02-13T15:51:41;23.784;;;11.488;;
59986;SDS011;46181;51.498;5.392;2023-02-13T15:56:14;28.832;;;11.584;;
59986;SDS011;46181;51.498;5.392;2023-02-13T16:00:42;14.744;;;8.591999;;
59986;SDS011;46181;51.498;5.392;2023-02-13T16:05:12;12.924;;;7.619998;;
59986;SDS011;46181;51.498;5.392;2023-02-13T16:09:41;13.488;;;7.356;;
59986;SDS011;46181;51.498;5.392;2023-02-13T16:14:13;15.028;;;7.920001;;
59986;SDS011;46181;51.498;5.392;2023-02-13T16:18:41;11.824;;;7.208;;
59986;SDS011;46181;51.498;5.392;2023-02-13T16:23:16;12.116;;;6.132;;
59986;SDS011;46181;51.498;5.392;2023-02-13T16:27:44;11.552;;;6.676;;
59986;SDS011;46181;51.498;5.392;2023-02-13T16:32:17;12.384;;;7.004001;;
59986;SDS011;46181;51.498;5.392;2023-02-13T16:36:41;12.968;;;7.523999;;
59986;SDS011;46181;51.498;5.392;2023-02-13T16:41:28;12.756;;;7.58;;
59986;SDS011;46181;51.498;5.392;2023-02-13T16:45:41;15.68;;;8.656;;
59986;SDS011;46181;51.498;5.392;2023-02-13T16:50:15;17.716;;;9.636003;;
59986;SDS011;46181;51.498;5.392;2023-02-13T16:54:44;18.48;;;10.516;;
59986;SDS011;46181;51.498;5.392;2023-02-13T16:59:17;16.744;;;8.956001;;
59986;SDS011;46181;51.498;5.392;2023-02-13T17:03:41;15.136;;;8.62;;
59986;SDS011;46181;51.498;5.392;2023-02-13T17:08:11;22.524;;;12.604;;
59986;SDS011;46181;51.498;5.392;2023-02-13T17:12:41;18.064;;;9.727999;;
59986;SDS011;46181;51.498;5.392;2023-02-13T17:17:15;16.02;;;8.384002;;
59986;SDS011;46181;51.498;5.392;2023-02-13T17:21:41;17.16;;;9.384;;
59986;SDS011;46181;51.498;5.392;2023-02-13T17:26:11;18.42;;;9.668002;;
59986;SDS011;46181;51.498;5.392;2023-02-13T17:30:41;17.564;;;9.307999;;
59986;SDS011;46181;51.498;5.392;2023-02-13T17:35:13;15.78;;;9.483999;;
59986;SDS011;46181;51.498;5.392;2023-02-13T17:39:41;17.084;;;9.288;;
59986;SDS011;46181;51.498;5.392;2023-02-13T17:44:12;23.212;;;10.416;;
59986;SDS011;46181;51.498;5.392;2023-02-13T17:48:41;21.112;;;10.924;;
59986;SDS011;46181;51.498;5.392;2023-02-13T17:53:15;16.972;;;10.052;;
59986;SDS011;46181;51.498;5.392;2023-02-13T17:57:41;21.704;;;11.58;;
59986;SDS011;46181;51.498;5.392;2023-02-13T18:02:14;20.356;;;11.26;;
59986;SDS011;46181;51.498;5.392;2023-02-13T18:06:41;20.848;;;10.328;;
59986;SDS011;46181;51.498;5.392;2023-02-13T18:11:12;20.48;;;10.364;;
59986;SDS011;46181;51.498;5.392;2023-02-13T18:15:42;21.24;;;11.284;;
59986;SDS011;46181;51.498;5.392;2023-02-13T18:20:12;18.932;;;11.212;;
59986;SDS011;46181;51.498;5.392;2023-02-13T18:24:41;19.924;;;11.62;;
59986;SDS011;46181;51.498;5.392;2023-02-13T18:29:11;21.012;;;11.468;;
59986;SDS011;46181;51.498;5.392;2023-02-13T18:33:41;22.064;;;11.684;;
59986;SDS011;46181;51.498;5.392;2023-02-13T18:38:11;25.256;;;12.48;;
59986;SDS011;46181;51.498;5.392;2023-02-13T18:42:41;19.528;;;11.66;;
59986;SDS011;46181;51.498;5.392;2023-02-13T18:47:11;23.624;;;12.568;;
59986;SDS011;46181;51.498;5.392;2023-02-13T18:51:41;24.656;;;13.104;;
59986;SDS011;46181;51.498;5.392;2023-02-13T18:56:11;24.392;;;13.724;;
59986;SDS011;46181;51.498;5.392;2023-02-13T19:00:41;33.116;;;16.056;;
59986;SDS011;46181;51.498;5.392;2023-02-13T19:05:11;25.256;;;14.42;;
59986;SDS011;46181;51.498;5.392;2023-02-13T19:09:41;23.34;;;13.056;;
59986;SDS011;46181;51.498;5.392;2023-02-13T19:14:12;23;;;12.124;;
59986;SDS011;46181;51.498;5.392;2023-02-13T19:18:42;22.016;;;12.376;;
59986;SDS011;46181;51.498;5.392;2023-02-13T19:23:11;25.352;;;13.572;;
59986;SDS011;46181;51.498;5.392;2023-02-13T19:27:41;23.488;;;13.028;;
59986;SDS011;46181;51.498;5.392;2023-02-13T19:32:11;23.86;;;13.236;;
59986;SDS011;46181;51.498;5.392;2023-02-13T19:36:41;23.864;;;13.008;;
59986;SDS011;46181;51.498;5.392;2023-02-13T19:41:12;25.256;;;14.564;;
59986;SDS011;46181;51.498;5.392;2023-02-13T19:45:41;25.636;;;14.004;;
59986;SDS011;46181;51.498;5.392;2023-02-13T19:50:12;25.148;;;14.08;;
59986;SDS011;46181;51.498;5.392;2023-02-13T19:54:41;23.572;;;13.332;;
59986;SDS011;46181;51.498;5.392;2023-02-13T19:59:11;23.764;;;13.332;;
59986;SDS011;46181;51.498;5.392;2023-02-13T20:03:41;24.764;;;13.588;;
59986;SDS011;46181;51.498;5.392;2023-02-13T20:08:11;24.772;;;13.836;;
59986;SDS011;46181;51.498;5.392;2023-02-13T20:12:41;32.04;;;16.308;;
59986;SDS011;46181;51.498;5.392;2023-02-13T20:17:11;30.616;;;16.32;;
59986;SDS011;46181;51.498;5.392;2023-02-13T20:21:41;35.608;;;17.444;;
59986;SDS011;46181;51.498;5.392;2023-02-13T20:26:12;31.036;;;16.072;;
59986;SDS011;46181;51.498;5.392;2023-02-13T20:30:42;31.08401;;;15.58;;
59986;SDS011;46181;51.498;5.392;2023-02-13T20:35:11;29.86;;;15.288;;
59986;SDS011;46181;51.498;5.392;2023-02-13T20:39:41;28.848;;;15.932;;
59986;SDS011;46181;51.498;5.392;2023-02-13T20:44:12;28.704;;;16.068;;
59986;SDS011;46181;51.498;5.392;2023-02-13T20:48:43;31.872;;;16.972;;
59986;SDS011;46181;51.498;5.392;2023-02-13T20:53:11;28.312;;;15.836;;
59986;SDS011;46181;51.498;5.392;2023-02-13T20:57:41;30.848;;;15.156;;
59986;SDS011;46181;51.498;5.392;2023-02-13T21:02:12;26.12;;;14.776;;
59986;SDS011;46181;51.498;5.392;2023-02-13T21:06:41;24.764;;;14.436;;
59986;SDS011;46181;51.498;5.392;2023-02-13T21:11:11;30.736;;;16.888;;
59986;SDS011;46181;51.498;5.392;2023-02-13T21:15:41;27.04;;;14.236;;
59986;SDS011;46181;51.498;5.392;2023-02-13T21:20:12;26.804;;;13.44;;
59986;SDS011;46181;51.498;5.392;2023-02-13T21:24:41;25.676;;;13.816;;
59986;SDS011;46181;51.498;5.392;2023-02-13T21:29:11;28.088;;;14.036;;
59986;SDS011;46181;51.498;5.392;2023-02-13T21:33:41;25.04;;;13.792;;
59986;SDS011;46181;51.498;5.392;2023-02-13T21:38:11;24.388;;;13.968;;
59986;SDS011;46181;51.498;5.392;2023-02-13T21:42:41;24.476;;;13.924;;
59986;SDS011;46181;51.498;5.392;2023-02-13T21:47:11;27.98;;;14.012;;
59986;SDS011;46181;51.498;5.392;2023-02-13T21:51:41;27.272;;;14.504;;
59986;SDS011;46181;51.498;5.392;2023-02-13T21:56:12;23.436;;;13.452;;
59986;SDS011;46181;51.498;5.392;2023-02-13T22:00:41;29.388;;;15.32;;
59986;SDS011;46181;51.498;5.392;2023-02-13T22:05:11;26.604;;;13.584;;
59986;SDS011;46181;51.498;5.392;2023-02-13T22:09:41;27.472;;;14.392;;
59986;SDS011;46181;51.498;5.392;2023-02-13T22:14:13;32.788;;;15.136;;
59986;SDS011;46181;51.498;5.392;2023-02-13T22:18:42;29.972;;;14.684;;
59986;SDS011;46181;51.498;5.392;2023-02-13T22:23:11;29.008;;;15.4;;
59986;SDS011;46181;51.498;5.392;2023-02-13T22:27:44;26.956;;;14.708;;
59986;SDS011;46181;51.498;5.392;2023-02-13T22:32:11;26.48;;;12.824;;
59986;SDS011;46181;51.498;5.392;2023-02-13T22:36:41;25.3;;;12.388;;
59986;SDS011;46181;51.498;5.392;2023-02-13T22:41:12;26.616;;;14.012;;
59986;SDS011;46181;51.498;5.392;2023-02-13T22:45:41;25.196;;;12.88;;
59986;SDS011;46181;51.498;5.392;2023-02-13T22:50:12;25.264;;;12.568;;
59986;SDS011;46181;51.498;5.392;2023-02-13T22:54:41;24.852;;;12.352;;
59986;SDS011;46181;51.498;5.392;2023-02-13T22:59:12;26.444;;;11.884;;
59986;SDS011;46181;51.498;5.392;2023-02-13T23:03:41;23.356;;;11.476;;
59986;SDS011;46181;51.498;5.392;2023-02-13T23:08:11;19.42;;;10.84;;
59986;SDS011;46181;51.498;5.392;2023-02-13T23:12:41;23.572;;;11.888;;
59986;SDS011;46181;51.498;5.392;2023-02-13T23:17:11;19.896;;;10.984;;
59986;SDS011;46181;51.498;5.392;2023-02-13T23:21:41;21.74;;;11.724;;
59986;SDS011;46181;51.498;5.392;2023-02-13T23:26:11;21.796;;;11.764;;
59986;SDS011;46181;51.498;5.392;2023-02-13T23:30:42;23.888;;;11.956;;
59986;SDS011;46181;51.498;5.392;2023-02-13T23:35:11;21.816;;;12.48;;
59986;SDS011;46181;51.498;5.392;2023-02-13T23:39:42;27.716;;;13.948;;
59986;SDS011;46181;51.498;5.392;2023-02-13T23:44:11;30.624;;;15.852;;
59986;SDS011;46181;51.498;5.392;2023-02-13T23:48:41;30.7;;;16.912;;
59986;SDS011;46181;51.498;5.392;2023-02-13T23:53:11;32.71601;;;15.932;;
59986;SDS011;46181;51.498;5.392;2023-02-13T23:57:41;30.672;;;15.056;;
